Airfield :
LOGIN :

Register | Disclaimer

   EN    FR    IT 

 










Legend :    VFR   Marginal VFR   IFR   Intensive IFR   Very Intensive IFR
Visi :
Ceiling :
>= 8 km
>= 3000ft
5 to 8 km
1000 to 3000 ft
1500m to 5 km
500 to 1000 ft
800 to 1500m
200 to 500 ft
< 800m
< 200 ft
Symbols :   Thunderstorms  Fog  Heavy snow  Heavy precipitations  Wind > 20 kt
SIGMETs :     Misc.  Thunderstorms  Icing  Turbulence  Mountain Waves  Volcanic Ashes







- Airport Elevation : 65 ft
- IATA code : PIK
- Download approach charts


EGPK - Glasgow Prestwick

CURRENT METAR :
  • 260720Z 17008KT 9999 -SHRA FEW015 FEW020CB SCT042 10/09 Q1000

EXPIRED METARs :
  • 260650Z 17006KT 130V190 9999 -SHRA FEW009 FEW015CB SCT021 10/08 Q1000
  • 260620Z 17007KT 140V210 9999 -SHRA FEW009 FEW015CB SCT021 09/08 Q1000
  • 260550Z 15006KT 9999 FEW008 SCT021 BKN045 09/08 Q0999
  • 260450Z 15007KT 9999 FEW021 BKN045 09/07 Q0999

TAF TAF EGPK
Valid from the 26 at 06:00 until the 27 at 06:00 UTC


260502Z 2606/2706 17010KT 9999 SCT030
PROB40
TEMPO 2606/2624 6000 SHRA RA BKN012
TEMPO 2621/2624 09007KT
No reported NOTAMs for that airfield.



MET'MAP, your aeronautical weather chart ! - Copyright ORBIFLY December 2007 - Disclaimer

ORBIFLY MET'MAP TEAM :

Programming & Development : Alexandra Zaïnal
Concept & Development : Baudouin d'Aumeries
Co-Development & Prog : Marc-Olivier Méhu
Technical & hardware support : Manuel Goepfert

Contact : metmap@orbifly.com




SOURCES & CREDITS :

   NOAA